sensor_id;sensor_type;location;lat;lon;timestamp;temperature;humidity
51884;DHT22;37915;53.254;6.598;2023-02-18T00:01:54;7.20;99.90
51884;DHT22;37915;53.254;6.598;2023-02-18T00:04:19;7.20;99.90
51884;DHT22;37915;53.254;6.598;2023-02-18T00:06:45;7.30;99.90
51884;DHT22;37915;53.254;6.598;2023-02-18T00:09:11;7.30;99.90
51884;DHT22;37915;53.254;6.598;2023-02-18T00:11:36;7.30;99.90
51884;DHT22;37915;53.254;6.598;2023-02-18T00:14:03;7.30;99.90
51884;DHT22;37915;53.254;6.598;2023-02-18T00:16:29;7.30;99.90
51884;DHT22;37915;53.254;6.598;2023-02-18T00:18:55;7.30;99.90
51884;DHT22;37915;53.254;6.598;2023-02-18T00:21:21;7.30;99.90
51884;DHT22;37915;53.254;6.598;2023-02-18T00:23:47;7.30;99.90
51884;DHT22;37915;53.254;6.598;2023-02-18T00:26:14;7.30;99.90
51884;DHT22;37915;53.254;6.598;2023-02-18T00:28:40;7.30;99.90
51884;DHT22;37915;53.254;6.598;2023-02-18T00:31:10;7.30;99.90
51884;DHT22;37915;53.254;6.598;2023-02-18T00:33:36;7.30;99.90
51884;DHT22;37915;53.254;6.598;2023-02-18T00:36:06;7.30;99.90
51884;DHT22;37915;53.254;6.598;2023-02-18T00:38:32;7.30;99.90
51884;DHT22;37915;53.254;6.598;2023-02-18T00:40:58;7.30;99.90
51884;DHT22;37915;53.254;6.598;2023-02-18T00:43:24;7.30;99.90
51884;DHT22;37915;53.254;6.598;2023-02-18T00:45:50;7.30;99.90
51884;DHT22;37915;53.254;6.598;2023-02-18T00:48:15;7.20;99.90
51884;DHT22;37915;53.254;6.598;2023-02-18T00:50:41;7.30;99.90
51884;DHT22;37915;53.254;6.598;2023-02-18T00:53:07;7.20;99.90
51884;DHT22;37915;53.254;6.598;2023-02-18T00:55:37;7.10;99.90
51884;DHT22;37915;53.254;6.598;2023-02-18T00:58:03;7.20;99.90
51884;DHT22;37915;53.254;6.598;2023-02-18T01:00:28;7.10;99.90
51884;DHT22;37915;53.254;6.598;2023-02-18T01:02:54;7.10;99.90
51884;DHT22;37915;53.254;6.598;2023-02-18T01:05:19;7.00;99.90
51884;DHT22;37915;53.254;6.598;2023-02-18T01:07:45;7.00;99.90
51884;DHT22;37915;53.254;6.598;2023-02-18T01:10:11;6.90;99.90
51884;DHT22;37915;53.254;6.598;2023-02-18T01:12:37;7.00;99.90
51884;DHT22;37915;53.254;6.598;2023-02-18T01:15:03;7.00;99.90
51884;DHT22;37915;53.254;6.598;2023-02-18T01:17:29;6.90;99.90
51884;DHT22;37915;53.254;6.598;2023-02-18T01:19:54;6.90;99.90
51884;DHT22;37915;53.254;6.598;2023-02-18T01:22:20;7.00;99.90
51884;DHT22;37915;53.254;6.598;2023-02-18T01:24:45;6.90;99.90
51884;DHT22;37915;53.254;6.598;2023-02-18T01:27:11;7.00;99.90
51884;DHT22;37915;53.254;6.598;2023-02-18T01:29:37;7.00;99.90
51884;DHT22;37915;53.254;6.598;2023-02-18T01:32:02;7.00;99.90
51884;DHT22;37915;53.254;6.598;2023-02-18T01:34:28;7.10;99.90
51884;DHT22;37915;53.254;6.598;2023-02-18T01:36:54;7.10;99.90
51884;DHT22;37915;53.254;6.598;2023-02-18T01:39:20;7.20;99.90
51884;DHT22;37915;53.254;6.598;2023-02-18T01:41:45;7.20;99.90
51884;DHT22;37915;53.254;6.598;2023-02-18T01:44:12;7.20;99.90
51884;DHT22;37915;53.254;6.598;2023-02-18T01:46:37;7.30;99.90
51884;DHT22;37915;53.254;6.598;2023-02-18T01:49:03;7.30;99.90
51884;DHT22;37915;53.254;6.598;2023-02-18T01:51:31;7.30;99.90
51884;DHT22;37915;53.254;6.598;2023-02-18T01:54:02;7.30;99.90
51884;DHT22;37915;53.254;6.598;2023-02-18T01:56:34;7.30;99.90
51884;DHT22;37915;53.254;6.598;2023-02-18T01:59:00;7.30;99.90
51884;DHT22;37915;53.254;6.598;2023-02-18T02:01:27;7.40;99.90
51884;DHT22;37915;53.254;6.598;2023-02-18T02:03:53;7.40;99.90
51884;DHT22;37915;53.254;6.598;2023-02-18T02:06:20;7.40;99.90
51884;DHT22;37915;53.254;6.598;2023-02-18T02:08:46;7.40;99.90
51884;DHT22;37915;53.254;6.598;2023-02-18T02:16:34;7.40;99.90
51884;DHT22;37915;53.254;6.598;2023-02-18T02:19:20;7.40;99.90
51884;DHT22;37915;53.254;6.598;2023-02-18T02:22:03;7.30;99.90
51884;DHT22;37915;53.254;6.598;2023-02-18T02:26:59;7.40;99.90
51884;DHT22;37915;53.254;6.598;2023-02-18T02:37:44;7.40;99.90
51884;DHT22;37915;53.254;6.598;2023-02-18T02:45:26;7.30;99.90
51884;DHT22;37915;53.254;6.598;2023-02-18T02:48:03;7.40;99.90
51884;DHT22;37915;53.254;6.598;2023-02-18T02:50:34;7.30;99.90
51884;DHT22;37915;53.254;6.598;2023-02-18T02:53:03;7.30;99.90
51884;DHT22;37915;53.254;6.598;2023-02-18T02:55:30;7.30;99.90
51884;DHT22;37915;53.254;6.598;2023-02-18T02:57:56;7.30;99.90
51884;DHT22;37915;53.254;6.598;2023-02-18T03:00:34;7.30;99.90
51884;DHT22;37915;53.254;6.598;2023-02-18T03:08:31;7.30;99.90
51884;DHT22;37915;53.254;6.598;2023-02-18T03:11:06;7.30;99.90
51884;DHT22;37915;53.254;6.598;2023-02-18T03:21:01;7.30;99.90
51884;DHT22;37915;53.254;6.598;2023-02-18T03:23:31;7.30;99.90
51884;DHT22;37915;53.254;6.598;2023-02-18T03:25:57;7.30;99.90
51884;DHT22;37915;53.254;6.598;2023-02-18T03:28:23;7.30;99.90
51884;DHT22;37915;53.254;6.598;2023-02-18T03:30:55;7.50;99.90
51884;DHT22;37915;53.254;6.598;2023-02-18T03:33:27;7.30;99.90
51884;DHT22;37915;53.254;6.598;2023-02-18T03:35:54;7.30;99.90
51884;DHT22;37915;53.254;6.598;2023-02-18T03:38:22;7.40;99.90
51884;DHT22;37915;53.254;6.598;2023-02-18T03:40:49;7.50;99.90
51884;DHT22;37915;53.254;6.598;2023-02-18T03:43:14;7.50;99.90
51884;DHT22;37915;53.254;6.598;2023-02-18T03:45:40;7.50;99.90
51884;DHT22;37915;53.254;6.598;2023-02-18T03:48:06;7.50;99.90
51884;DHT22;37915;53.254;6.598;2023-02-18T03:50:31;7.50;99.90
51884;DHT22;37915;53.254;6.598;2023-02-18T03:52:57;7.60;99.90
51884;DHT22;37915;53.254;6.598;2023-02-18T03:55:22;7.50;99.90
51884;DHT22;37915;53.254;6.598;2023-02-18T03:57:48;7.50;99.90
51884;DHT22;37915;53.254;6.598;2023-02-18T04:00:14;7.50;99.90
51884;DHT22;37915;53.254;6.598;2023-02-18T04:02:40;7.50;99.90
51884;DHT22;37915;53.254;6.598;2023-02-18T04:05:06;7.50;99.90
51884;DHT22;37915;53.254;6.598;2023-02-18T04:07:32;7.50;99.90
51884;DHT22;37915;53.254;6.598;2023-02-18T04:09:57;7.50;99.90
51884;DHT22;37915;53.254;6.598;2023-02-18T04:12:23;7.50;99.90
51884;DHT22;37915;53.254;6.598;2023-02-18T04:14:48;7.50;99.90
51884;DHT22;37915;53.254;6.598;2023-02-18T04:17:14;7.50;99.90
51884;DHT22;37915;53.254;6.598;2023-02-18T04:19:39;7.50;99.90
51884;DHT22;37915;53.254;6.598;2023-02-18T04:22:05;7.50;99.90
51884;DHT22;37915;53.254;6.598;2023-02-18T04:24:30;7.50;99.90
51884;DHT22;37915;53.254;6.598;2023-02-18T04:26:56;7.40;99.90
51884;DHT22;37915;53.254;6.598;2023-02-18T04:29:22;7.40;99.90
51884;DHT22;37915;53.254;6.598;2023-02-18T04:31:47;7.50;99.90
51884;DHT22;37915;53.254;6.598;2023-02-18T04:34:13;7.50;99.90
51884;DHT22;37915;53.254;6.598;2023-02-18T04:36:38;7.40;99.90
51884;DHT22;37915;53.254;6.598;2023-02-18T04:39:04;7.40;99.90
51884;DHT22;37915;53.254;6.598;2023-02-18T04:41:29;7.40;99.90
51884;DHT22;37915;53.254;6.598;2023-02-18T04:43:55;7.40;99.90
51884;DHT22;37915;53.254;6.598;2023-02-18T04:46:21;7.40;99.90
51884;DHT22;37915;53.254;6.598;2023-02-18T04:48:46;7.30;99.90
51884;DHT22;37915;53.254;6.598;2023-02-18T04:51:12;7.30;99.90
51884;DHT22;37915;53.254;6.598;2023-02-18T04:53:37;7.30;99.90
51884;DHT22;37915;53.254;6.598;2023-02-18T04:56:03;7.20;99.90
51884;DHT22;37915;53.254;6.598;2023-02-18T04:58:29;7.30;99.90
51884;DHT22;37915;53.254;6.598;2023-02-18T05:00:57;7.20;99.90
51884;DHT22;37915;53.254;6.598;2023-02-18T05:03:23;7.20;99.90
51884;DHT22;37915;53.254;6.598;2023-02-18T05:05:48;7.20;99.90
51884;DHT22;37915;53.254;6.598;2023-02-18T05:08:14;7.20;99.90
51884;DHT22;37915;53.254;6.598;2023-02-18T05:10:40;7.20;99.90
51884;DHT22;37915;53.254;6.598;2023-02-18T05:13:06;7.20;99.90
51884;DHT22;37915;53.254;6.598;2023-02-18T05:15:31;7.20;99.90
51884;DHT22;37915;53.254;6.598;2023-02-18T05:17:57;7.30;99.90
51884;DHT22;37915;53.254;6.598;2023-02-18T05:20:22;7.20;99.90
51884;DHT22;37915;53.254;6.598;2023-02-18T05:22:48;7.30;99.90
51884;DHT22;37915;53.254;6.598;2023-02-18T05:25:14;7.30;99.90
51884;DHT22;37915;53.254;6.598;2023-02-18T05:27:39;7.30;99.90
51884;DHT22;37915;53.254;6.598;2023-02-18T05:30:05;7.30;99.90
51884;DHT22;37915;53.254;6.598;2023-02-18T05:32:31;7.30;99.90
51884;DHT22;37915;53.254;6.598;2023-02-18T05:34:56;7.40;99.90
51884;DHT22;37915;53.254;6.598;2023-02-18T05:37:22;7.50;99.90
51884;DHT22;37915;53.254;6.598;2023-02-18T05:39:48;7.50;99.90
51884;DHT22;37915;53.254;6.598;2023-02-18T05:42:13;7.50;99.90
51884;DHT22;37915;53.254;6.598;2023-02-18T05:44:39;7.60;99.90
51884;DHT22;37915;53.254;6.598;2023-02-18T05:47:06;7.60;99.90
51884;DHT22;37915;53.254;6.598;2023-02-18T05:49:32;7.60;99.90
51884;DHT22;37915;53.254;6.598;2023-02-18T05:51:58;7.60;99.90
51884;DHT22;37915;53.254;6.598;2023-02-18T05:54:24;7.70;99.90
51884;DHT22;37915;53.254;6.598;2023-02-18T05:56:50;7.80;99.90
51884;DHT22;37915;53.254;6.598;2023-02-18T05:59:15;7.80;99.90
51884;DHT22;37915;53.254;6.598;2023-02-18T06:01:41;7.90;99.90
51884;DHT22;37915;53.254;6.598;2023-02-18T06:04:07;7.90;99.90
51884;DHT22;37915;53.254;6.598;2023-02-18T06:06:33;7.90;99.90
51884;DHT22;37915;53.254;6.598;2023-02-18T06:08:58;7.90;99.90
51884;DHT22;37915;53.254;6.598;2023-02-18T06:11:24;8.00;99.90
51884;DHT22;37915;53.254;6.598;2023-02-18T06:13:49;8.10;99.90
51884;DHT22;37915;53.254;6.598;2023-02-18T06:16:15;8.00;99.90
51884;DHT22;37915;53.254;6.598;2023-02-18T06:18:41;8.10;99.90
51884;DHT22;37915;53.254;6.598;2023-02-18T06:21:06;8.20;99.90
51884;DHT22;37915;53.254;6.598;2023-02-18T06:23:32;8.20;99.90
51884;DHT22;37915;53.254;6.598;2023-02-18T06:25:57;8.20;99.90
51884;DHT22;37915;53.254;6.598;2023-02-18T06:28:23;8.20;99.90
51884;DHT22;37915;53.254;6.598;2023-02-18T06:30:49;8.30;99.90
51884;DHT22;37915;53.254;6.598;2023-02-18T06:33:14;8.30;99.90
51884;DHT22;37915;53.254;6.598;2023-02-18T06:35:40;8.40;99.90
51884;DHT22;37915;53.254;6.598;2023-02-18T06:38:06;8.40;99.90
51884;DHT22;37915;53.254;6.598;2023-02-18T06:40:31;8.50;99.90
51884;DHT22;37915;53.254;6.598;2023-02-18T06:42:57;8.50;99.90
51884;DHT22;37915;53.254;6.598;2023-02-18T06:45:23;8.60;99.90
51884;DHT22;37915;53.254;6.598;2023-02-18T06:47:48;8.60;99.90
51884;DHT22;37915;53.254;6.598;2023-02-18T06:50:14;8.70;99.90
51884;DHT22;37915;53.254;6.598;2023-02-18T06:52:40;8.80;99.90
51884;DHT22;37915;53.254;6.598;2023-02-18T06:55:06;8.80;99.90
51884;DHT22;37915;53.254;6.598;2023-02-18T06:57:32;8.80;99.90
51884;DHT22;37915;53.254;6.598;2023-02-18T06:59:58;8.80;99.90
51884;DHT22;37915;53.254;6.598;2023-02-18T07:02:23;8.90;99.90
51884;DHT22;37915;53.254;6.598;2023-02-18T07:04:49;8.90;99.90
51884;DHT22;37915;53.254;6.598;2023-02-18T07:07:14;8.90;99.90
51884;DHT22;37915;53.254;6.598;2023-02-18T07:09:40;8.90;99.90
51884;DHT22;37915;53.254;6.598;2023-02-18T07:12:05;9.00;99.90
51884;DHT22;37915;53.254;6.598;2023-02-18T07:14:31;9.00;99.90
51884;DHT22;37915;53.254;6.598;2023-02-18T07:16:57;9.00;99.90
51884;DHT22;37915;53.254;6.598;2023-02-18T07:19:23;9.10;99.90
51884;DHT22;37915;53.254;6.598;2023-02-18T07:21:48;9.10;99.90
51884;DHT22;37915;53.254;6.598;2023-02-18T07:24:14;9.10;99.90
51884;DHT22;37915;53.254;6.598;2023-02-18T07:26:39;9.20;99.90
51884;DHT22;37915;53.254;6.598;2023-02-18T07:29:05;9.30;99.90
51884;DHT22;37915;53.254;6.598;2023-02-18T07:31:30;9.30;99.90
51884;DHT22;37915;53.254;6.598;2023-02-18T07:33:56;9.30;99.90
51884;DHT22;37915;53.254;6.598;2023-02-18T07:36:22;9.30;99.90
51884;DHT22;37915;53.254;6.598;2023-02-18T07:38:47;9.40;99.90
51884;DHT22;37915;53.254;6.598;2023-02-18T07:41:15;9.40;99.90
51884;DHT22;37915;53.254;6.598;2023-02-18T07:43:42;9.50;99.90
51884;DHT22;37915;53.254;6.598;2023-02-18T07:46:07;9.50;99.90
51884;DHT22;37915;53.254;6.598;2023-02-18T07:48:33;9.50;99.90
51884;DHT22;37915;53.254;6.598;2023-02-18T07:50:58;9.50;99.90
51884;DHT22;37915;53.254;6.598;2023-02-18T07:53:24;9.50;99.90
51884;DHT22;37915;53.254;6.598;2023-02-18T07:55:49;9.50;99.90
51884;DHT22;37915;53.254;6.598;2023-02-18T07:58:19;9.50;99.90
51884;DHT22;37915;53.254;6.598;2023-02-18T08:00:45;9.50;99.90
51884;DHT22;37915;53.254;6.598;2023-02-18T08:03:12;9.50;99.90
51884;DHT22;37915;53.254;6.598;2023-02-18T08:05:38;9.50;99.90
51884;DHT22;37915;53.254;6.598;2023-02-18T08:08:03;9.40;99.90
51884;DHT22;37915;53.254;6.598;2023-02-18T08:10:29;9.50;99.90
51884;DHT22;37915;53.254;6.598;2023-02-18T08:12:54;9.50;99.90
51884;DHT22;37915;53.254;6.598;2023-02-18T08:15:20;9.40;99.90
51884;DHT22;37915;53.254;6.598;2023-02-18T08:17:46;9.50;99.90
51884;DHT22;37915;53.254;6.598;2023-02-18T08:20:11;9.50;99.90
51884;DHT22;37915;53.254;6.598;2023-02-18T08:22:37;9.50;99.90
51884;DHT22;37915;53.254;6.598;2023-02-18T08:25:03;9.50;99.90
51884;DHT22;37915;53.254;6.598;2023-02-18T08:27:28;9.50;99.90
51884;DHT22;37915;53.254;6.598;2023-02-18T08:29:54;9.40;99.90
51884;DHT22;37915;53.254;6.598;2023-02-18T08:32:20;9.40;99.90
51884;DHT22;37915;53.254;6.598;2023-02-18T08:34:46;9.40;99.90
51884;DHT22;37915;53.254;6.598;2023-02-18T08:37:11;9.30;99.90
51884;DHT22;37915;53.254;6.598;2023-02-18T08:39:37;9.30;99.90
51884;DHT22;37915;53.254;6.598;2023-02-18T08:42:03;9.30;99.90
51884;DHT22;37915;53.254;6.598;2023-02-18T08:44:29;9.30;99.90
51884;DHT22;37915;53.254;6.598;2023-02-18T08:46:54;9.30;99.90
51884;DHT22;37915;53.254;6.598;2023-02-18T08:49:20;9.30;99.90
51884;DHT22;37915;53.254;6.598;2023-02-18T08:51:49;9.30;99.90
51884;DHT22;37915;53.254;6.598;2023-02-18T08:54:14;9.30;99.90
51884;DHT22;37915;53.254;6.598;2023-02-18T08:56:40;9.20;99.90
51884;DHT22;37915;53.254;6.598;2023-02-18T08:59:06;9.20;99.90
51884;DHT22;37915;53.254;6.598;2023-02-18T09:01:31;9.20;99.90
51884;DHT22;37915;53.254;6.598;2023-02-18T09:03:57;9.10;99.90
51884;DHT22;37915;53.254;6.598;2023-02-18T09:06:22;9.20;99.90
51884;DHT22;37915;53.254;6.598;2023-02-18T09:08:48;9.20;99.90
51884;DHT22;37915;53.254;6.598;2023-02-18T09:11:14;9.10;99.90
51884;DHT22;37915;53.254;6.598;2023-02-18T09:13:40;9.20;99.90
51884;DHT22;37915;53.254;6.598;2023-02-18T09:16:07;9.10;99.90
51884;DHT22;37915;53.254;6.598;2023-02-18T09:18:33;9.10;99.90
51884;DHT22;37915;53.254;6.598;2023-02-18T09:21:00;9.10;99.90
51884;DHT22;37915;53.254;6.598;2023-02-18T09:23:26;9.10;99.90
51884;DHT22;37915;53.254;6.598;2023-02-18T09:25:52;9.10;99.90
51884;DHT22;37915;53.254;6.598;2023-02-18T09:28:18;9.10;99.90
51884;DHT22;37915;53.254;6.598;2023-02-18T09:30:43;9.10;99.90
51884;DHT22;37915;53.254;6.598;2023-02-18T09:33:09;9.10;99.90
51884;DHT22;37915;53.254;6.598;2023-02-18T09:35:38;9.10;99.90
51884;DHT22;37915;53.254;6.598;2023-02-18T09:38:04;9.10;99.90
51884;DHT22;37915;53.254;6.598;2023-02-18T09:40:31;9.10;99.90
51884;DHT22;37915;53.254;6.598;2023-02-18T09:42:57;9.10;99.90
51884;DHT22;37915;53.254;6.598;2023-02-18T09:45:23;9.10;99.90
51884;DHT22;37915;53.254;6.598;2023-02-18T09:47:49;9.10;99.90
51884;DHT22;37915;53.254;6.598;2023-02-18T09:50:26;9.10;99.90
51884;DHT22;37915;53.254;6.598;2023-02-18T09:52:52;9.20;99.90
51884;DHT22;37915;53.254;6.598;2023-02-18T09:57:51;9.20;99.90
51884;DHT22;37915;53.254;6.598;2023-02-18T10:00:19;9.20;99.90
51884;DHT22;37915;53.254;6.598;2023-02-18T10:02:49;9.20;99.90
51884;DHT22;37915;53.254;6.598;2023-02-18T10:05:17;9.20;99.90
51884;DHT22;37915;53.254;6.598;2023-02-18T10:07:42;9.20;99.90
51884;DHT22;37915;53.254;6.598;2023-02-18T10:10:20;9.20;99.90
51884;DHT22;37915;53.254;6.598;2023-02-18T10:12:46;9.20;99.90
51884;DHT22;37915;53.254;6.598;2023-02-18T10:15:19;9.30;99.90
51884;DHT22;37915;53.254;6.598;2023-02-18T10:17:45;9.30;99.90
51884;DHT22;37915;53.254;6.598;2023-02-18T10:20:14;9.40;99.90
51884;DHT22;37915;53.254;6.598;2023-02-18T10:22:41;9.40;99.90
51884;DHT22;37915;53.254;6.598;2023-02-18T10:25:06;9.50;99.90
51884;DHT22;37915;53.254;6.598;2023-02-18T10:27:34;9.60;99.90
51884;DHT22;37915;53.254;6.598;2023-02-18T10:30:16;9.60;99.90
51884;DHT22;37915;53.254;6.598;2023-02-18T10:32:43;9.70;99.90
51884;DHT22;37915;53.254;6.598;2023-02-18T10:35:32;9.70;99.90
51884;DHT22;37915;53.254;6.598;2023-02-18T10:37:57;9.80;99.90
51884;DHT22;37915;53.254;6.598;2023-02-18T10:40:34;9.80;99.90
51884;DHT22;37915;53.254;6.598;2023-02-18T10:43:16;9.90;99.90
51884;DHT22;37915;53.254;6.598;2023-02-18T10:48:45;10.00;99.90
51884;DHT22;37915;53.254;6.598;2023-02-18T10:51:14;10.10;99.90
51884;DHT22;37915;53.254;6.598;2023-02-18T10:53:41;10.20;99.90
51884;DHT22;37915;53.254;6.598;2023-02-18T10:56:13;10.30;99.90
51884;DHT22;37915;53.254;6.598;2023-02-18T10:58:57;10.30;99.90
51884;DHT22;37915;53.254;6.598;2023-02-18T11:01:25;10.40;99.90
51884;DHT22;37915;53.254;6.598;2023-02-18T11:03:51;10.40;99.90
51884;DHT22;37915;53.254;6.598;2023-02-18T11:06:37;10.50;99.90
51884;DHT22;37915;53.254;6.598;2023-02-18T11:09:03;10.50;99.90
51884;DHT22;37915;53.254;6.598;2023-02-18T11:11:30;10.50;99.90
51884;DHT22;37915;53.254;6.598;2023-02-18T11:13:57;10.50;99.90
51884;DHT22;37915;53.254;6.598;2023-02-18T11:16:35;10.50;99.90
51884;DHT22;37915;53.254;6.598;2023-02-18T11:19:00;10.50;99.90
51884;DHT22;37915;53.254;6.598;2023-02-18T11:21:30;10.50;99.90
51884;DHT22;37915;53.254;6.598;2023-02-18T11:23:56;10.60;99.90
51884;DHT22;37915;53.254;6.598;2023-02-18T11:26:40;10.60;99.90
51884;DHT22;37915;53.254;6.598;2023-02-18T11:29:16;10.60;99.90
51884;DHT22;37915;53.254;6.598;2023-02-18T11:31:45;10.70;99.90
51884;DHT22;37915;53.254;6.598;2023-02-18T11:34:30;10.70;99.90
51884;DHT22;37915;53.254;6.598;2023-02-18T11:36:56;10.70;99.90
51884;DHT22;37915;53.254;6.598;2023-02-18T11:39:32;10.70;99.90
51884;DHT22;37915;53.254;6.598;2023-02-18T11:41:59;10.70;99.90
51884;DHT22;37915;53.254;6.598;2023-02-18T11:44:32;10.70;99.90
51884;DHT22;37915;53.254;6.598;2023-02-18T11:49:28;10.70;99.90
51884;DHT22;37915;53.254;6.598;2023-02-18T11:51:54;10.70;99.90
51884;DHT22;37915;53.254;6.598;2023-02-18T11:54:28;10.70;99.90
51884;DHT22;37915;53.254;6.598;2023-02-18T11:56:57;10.70;99.90
51884;DHT22;37915;53.254;6.598;2023-02-18T11:59:24;10.70;99.90
51884;DHT22;37915;53.254;6.598;2023-02-18T12:01:50;10.80;99.90
51884;DHT22;37915;53.254;6.598;2023-02-18T12:04:20;10.80;99.90
51884;DHT22;37915;53.254;6.598;2023-02-18T12:06:52;10.80;99.90
51884;DHT22;37915;53.254;6.598;2023-02-18T12:09:24;10.80;99.90
51884;DHT22;37915;53.254;6.598;2023-02-18T12:11:55;10.80;99.90
51884;DHT22;37915;53.254;6.598;2023-02-18T12:14:21;10.80;99.90
51884;DHT22;37915;53.254;6.598;2023-02-18T12:26:51;10.80;99.90
51884;DHT22;37915;53.254;6.598;2023-02-18T12:34:26;10.90;99.90
51884;DHT22;37915;53.254;6.598;2023-02-18T12:42:22;10.90;99.90
51884;DHT22;37915;53.254;6.598;2023-02-18T12:45:02;11.00;99.90
51884;DHT22;37915;53.254;6.598;2023-02-18T12:47:29;11.10;99.90
51884;DHT22;37915;53.254;6.598;2023-02-18T12:52:47;11.10;99.90
51884;DHT22;37915;53.254;6.598;2023-02-18T13:05:57;11.10;99.90
51884;DHT22;37915;53.254;6.598;2023-02-18T13:08:34;11.20;99.90
51884;DHT22;37915;53.254;6.598;2023-02-18T13:16:16;11.10;99.90
51884;DHT22;37915;53.254;6.598;2023-02-18T13:21:28;11.10;99.90
51884;DHT22;37915;53.254;6.598;2023-02-18T13:23:55;11.00;99.90
51884;DHT22;37915;53.254;6.598;2023-02-18T13:26:21;11.10;99.90
51884;DHT22;37915;53.254;6.598;2023-02-18T13:32:08;11.00;99.90
51884;DHT22;37915;53.254;6.598;2023-02-18T13:39:36;11.00;99.90
51884;DHT22;37915;53.254;6.598;2023-02-18T13:42:11;11.00;99.90
51884;DHT22;37915;53.254;6.598;2023-02-18T13:47:40;11.00;99.90
51884;DHT22;37915;53.254;6.598;2023-02-18T13:50:39;11.00;99.90
51884;DHT22;37915;53.254;6.598;2023-02-18T13:53:10;10.90;99.90
51884;DHT22;37915;53.254;6.598;2023-02-18T13:58:10;10.80;99.90
51884;DHT22;37915;53.254;6.598;2023-02-18T14:00:38;10.80;99.90
51884;DHT22;37915;53.254;6.598;2023-02-18T14:03:52;10.80;99.90
51884;DHT22;37915;53.254;6.598;2023-02-18T14:05:53;10.80;99.90
51884;DHT22;37915;53.254;6.598;2023-02-18T14:08:33;10.80;99.90
51884;DHT22;37915;53.254;6.598;2023-02-18T14:13:38;10.80;99.90
51884;DHT22;37915;53.254;6.598;2023-02-18T14:16:05;10.80;99.90
51884;DHT22;37915;53.254;6.598;2023-02-18T14:21:48;10.70;99.90
51884;DHT22;37915;53.254;6.598;2023-02-18T14:23:56;10.70;99.90
51884;DHT22;37915;53.254;6.598;2023-02-18T14:28:54;10.70;99.90
51884;DHT22;37915;53.254;6.598;2023-02-18T14:34:26;10.80;99.90
51884;DHT22;37915;53.254;6.598;2023-02-18T14:37:13;10.70;99.90
51884;DHT22;37915;53.254;6.598;2023-02-18T14:42:38;10.50;99.90
51884;DHT22;37915;53.254;6.598;2023-02-18T14:50:32;10.40;99.90
51884;DHT22;37915;53.254;6.598;2023-02-18T14:53:02;10.40;99.90
51884;DHT22;37915;53.254;6.598;2023-02-18T14:55:29;10.40;99.90
51884;DHT22;37915;53.254;6.598;2023-02-18T14:58:00;10.30;99.90
51884;DHT22;37915;53.254;6.598;2023-02-18T15:00:27;10.30;99.90
51884;DHT22;37915;53.254;6.598;2023-02-18T15:02:56;10.30;99.90
51884;DHT22;37915;53.254;6.598;2023-02-18T15:05:31;10.30;99.90
51884;DHT22;37915;53.254;6.598;2023-02-18T15:08:02;10.20;99.90
51884;DHT22;37915;53.254;6.598;2023-02-18T15:10:41;10.30;99.90
51884;DHT22;37915;53.254;6.598;2023-02-18T15:13:16;10.30;99.90
51884;DHT22;37915;53.254;6.598;2023-02-18T15:15:42;10.20;99.90
51884;DHT22;37915;53.254;6.598;2023-02-18T15:20:46;10.10;99.90
51884;DHT22;37915;53.254;6.598;2023-02-18T15:23:12;10.10;99.90
51884;DHT22;37915;53.254;6.598;2023-02-18T15:25:40;10.10;99.90
51884;DHT22;37915;53.254;6.598;2023-02-18T15:28:16;10.00;99.90
51884;DHT22;37915;53.254;6.598;2023-02-18T15:30:44;10.00;99.90
51884;DHT22;37915;53.254;6.598;2023-02-18T15:33:10;10.00;99.90
51884;DHT22;37915;53.254;6.598;2023-02-18T15:35:39;10.00;99.90
51884;DHT22;37915;53.254;6.598;2023-02-18T15:38:05;10.00;99.90
51884;DHT22;37915;53.254;6.598;2023-02-18T15:40:38;9.90;99.90
51884;DHT22;37915;53.254;6.598;2023-02-18T15:43:04;9.90;99.90
51884;DHT22;37915;53.254;6.598;2023-02-18T15:45:32;9.80;99.90
51884;DHT22;37915;53.254;6.598;2023-02-18T15:47:58;9.80;99.90
51884;DHT22;37915;53.254;6.598;2023-02-18T15:52:49;9.70;99.90
51884;DHT22;37915;53.254;6.598;2023-02-18T15:55:26;9.60;99.90
51884;DHT22;37915;53.254;6.598;2023-02-18T15:57:52;9.60;99.90
51884;DHT22;37915;53.254;6.598;2023-02-18T16:00:40;9.60;99.90
51884;DHT22;37915;53.254;6.598;2023-02-18T16:05:35;9.50;99.90
51884;DHT22;37915;53.254;6.598;2023-02-18T16:08:05;9.50;99.90
51884;DHT22;37915;53.254;6.598;2023-02-18T16:13:01;9.40;99.90
51884;DHT22;37915;53.254;6.598;2023-02-18T16:15:31;9.40;99.90
51884;DHT22;37915;53.254;6.598;2023-02-18T16:18:01;9.40;99.90
51884;DHT22;37915;53.254;6.598;2023-02-18T16:20:31;9.40;99.90
51884;DHT22;37915;53.254;6.598;2023-02-18T16:23:09;9.30;99.90
51884;DHT22;37915;53.254;6.598;2023-02-18T16:25:39;9.30;99.90
51884;DHT22;37915;53.254;6.598;2023-02-18T16:28:16;9.30;99.90
51884;DHT22;37915;53.254;6.598;2023-02-18T16:30:46;9.30;99.90
51884;DHT22;37915;53.254;6.598;2023-02-18T16:33:12;9.30;99.90
51884;DHT22;37915;53.254;6.598;2023-02-18T16:35:38;9.20;99.90
51884;DHT22;37915;53.254;6.598;2023-02-18T16:38:04;9.20;99.90
51884;DHT22;37915;53.254;6.598;2023-02-18T16:42:56;9.10;99.90
51884;DHT22;37915;53.254;6.598;2023-02-18T16:45:25;9.10;99.90
51884;DHT22;37915;53.254;6.598;2023-02-18T16:47:56;9.10;99.90
51884;DHT22;37915;53.254;6.598;2023-02-18T16:50:21;9.10;99.90
51884;DHT22;37915;53.254;6.598;2023-02-18T16:52:48;9.10;99.90
51884;DHT22;37915;53.254;6.598;2023-02-18T16:55:17;9.10;99.90
51884;DHT22;37915;53.254;6.598;2023-02-18T16:57:44;9.10;99.90
51884;DHT22;37915;53.254;6.598;2023-02-18T17:00:09;9.00;99.90
51884;DHT22;37915;53.254;6.598;2023-02-18T17:02:35;9.00;99.90
51884;DHT22;37915;53.254;6.598;2023-02-18T17:05:01;9.00;99.90
51884;DHT22;37915;53.254;6.598;2023-02-18T17:07:26;8.90;99.90
51884;DHT22;37915;53.254;6.598;2023-02-18T17:09:52;8.90;99.90
51884;DHT22;37915;53.254;6.598;2023-02-18T17:12:18;8.90;99.90
51884;DHT22;37915;53.254;6.598;2023-02-18T17:14:43;8.90;99.90
51884;DHT22;37915;53.254;6.598;2023-02-18T17:17:11;8.80;99.90
51884;DHT22;37915;53.254;6.598;2023-02-18T17:19:38;8.80;99.90
51884;DHT22;37915;53.254;6.598;2023-02-18T17:22:03;8.70;99.90
51884;DHT22;37915;53.254;6.598;2023-02-18T17:24:29;8.80;99.90
51884;DHT22;37915;53.254;6.598;2023-02-18T17:26:55;8.70;99.90
51884;DHT22;37915;53.254;6.598;2023-02-18T17:29:20;8.70;99.90
51884;DHT22;37915;53.254;6.598;2023-02-18T17:31:46;8.70;99.90
51884;DHT22;37915;53.254;6.598;2023-02-18T17:34:14;8.70;99.90
51884;DHT22;37915;53.254;6.598;2023-02-18T17:36:40;8.70;99.90
51884;DHT22;37915;53.254;6.598;2023-02-18T17:39:13;8.70;99.90
51884;DHT22;37915;53.254;6.598;2023-02-18T17:41:39;8.70;99.90
51884;DHT22;37915;53.254;6.598;2023-02-18T17:44:11;8.70;99.90
51884;DHT22;37915;53.254;6.598;2023-02-18T17:46:37;8.60;99.90
51884;DHT22;37915;53.254;6.598;2023-02-18T17:49:03;8.60;99.90
51884;DHT22;37915;53.254;6.598;2023-02-18T17:51:28;8.70;99.90
51884;DHT22;37915;53.254;6.598;2023-02-18T17:53:54;8.70;99.90
51884;DHT22;37915;53.254;6.598;2023-02-18T17:56:20;8.60;99.90